sensor_id;sensor_type;location;lat;lon;timestamp;P1;durP1;ratioP1;P2;durP2;ratioP2
20336;SDS011;10326;53.660;10.200;2022-11-15T00:02:11;27.52;;;21.88;;
20336;SDS011;10326;53.660;10.200;2022-11-15T00:04:57;24.60;;;21.20;;
20336;SDS011;10326;53.660;10.200;2022-11-15T00:07:43;24.15;;;20.30;;
20336;SDS011;10326;53.660;10.200;2022-11-15T00:10:30;23.98;;;20.58;;
20336;SDS011;10326;53.660;10.200;2022-11-15T00:13:16;25.67;;;21.58;;
20336;SDS011;10326;53.660;10.200;2022-11-15T00:16:01;23.85;;;20.77;;
20336;SDS011;10326;53.660;10.200;2022-11-15T00:18:47;27.20;;;20.88;;
20336;SDS011;10326;53.660;10.200;2022-11-15T00:21:33;25.25;;;21.77;;
20336;SDS011;10326;53.660;10.200;2022-11-15T00:24:19;24.05;;;20.42;;
20336;SDS011;10326;53.660;10.200;2022-11-15T00:27:06;22.60;;;19.20;;
20336;SDS011;10326;53.660;10.200;2022-11-15T00:29:51;24.70;;;20.73;;
20336;SDS011;10326;53.660;10.200;2022-11-15T00:32:38;23.15;;;20.38;;
20336;SDS011;10326;53.660;10.200;2022-11-15T00:35:23;24.27;;;20.67;;
20336;SDS011;10326;53.660;10.200;2022-11-15T00:38:08;23.13;;;20.60;;
20336;SDS011;10326;53.660;10.200;2022-11-15T00:40:54;25.42;;;20.77;;
20336;SDS011;10326;53.660;10.200;2022-11-15T00:43:41;24.30;;;21.02;;
20336;SDS011;10326;53.660;10.200;2022-11-15T00:46:27;25.85;;;20.58;;
20336;SDS011;10326;53.660;10.200;2022-11-15T00:49:12;22.42;;;19.70;;
20336;SDS011;10326;53.660;10.200;2022-11-15T00:51:58;23.48;;;19.80;;
20336;SDS011;10326;53.660;10.200;2022-11-15T00:54:44;22.10;;;19.30;;
20336;SDS011;10326;53.660;10.200;2022-11-15T00:57:30;24.33;;;20.30;;
20336;SDS011;10326;53.660;10.200;2022-11-15T01:00:17;24.10;;;20.20;;
20336;SDS011;10326;53.660;10.200;2022-11-15T01:03:03;23.17;;;19.95;;
20336;SDS011;10326;53.660;10.200;2022-11-15T01:05:49;22.25;;;18.90;;
20336;SDS011;10326;53.660;10.200;2022-11-15T01:08:34;22.48;;;19.25;;
20336;SDS011;10326;53.660;10.200;2022-11-15T01:11:20;24.65;;;19.75;;
20336;SDS011;10326;53.660;10.200;2022-11-15T01:14:06;22.75;;;19.27;;
20336;SDS011;10326;53.660;10.200;2022-11-15T01:16:53;23.63;;;20.20;;
20336;SDS011;10326;53.660;10.200;2022-11-15T01:19:39;22.90;;;19.35;;
20336;SDS011;10326;53.660;10.200;2022-11-15T01:22:25;24.17;;;20.50;;
20336;SDS011;10326;53.660;10.200;2022-11-15T01:25:11;24.83;;;20.20;;
20336;SDS011;10326;53.660;10.200;2022-11-15T01:27:56;23.08;;;20.02;;
20336;SDS011;10326;53.660;10.200;2022-11-15T01:30:42;24.92;;;20.73;;
20336;SDS011;10326;53.660;10.200;2022-11-15T01:33:29;24.25;;;20.75;;
20336;SDS011;10326;53.660;10.200;2022-11-15T01:36:15;23.35;;;20.42;;
20336;SDS011;10326;53.660;10.200;2022-11-15T01:39:05;23.38;;;20.42;;
20336;SDS011;10326;53.660;10.200;2022-11-15T01:41:51;23.35;;;19.02;;
20336;SDS011;10326;53.660;10.200;2022-11-15T01:44:38;23.85;;;19.98;;
20336;SDS011;10326;53.660;10.200;2022-11-15T01:47:28;23.90;;;19.85;;
20336;SDS011;10326;53.660;10.200;2022-11-15T01:50:18;25.38;;;20.50;;
20336;SDS011;10326;53.660;10.200;2022-11-15T01:53:07;23.02;;;19.27;;
20336;SDS011;10326;53.660;10.200;2022-11-15T01:55:54;23.05;;;19.20;;
20336;SDS011;10326;53.660;10.200;2022-11-15T01:58:40;21.58;;;19.10;;
20336;SDS011;10326;53.660;10.200;2022-11-15T02:01:27;22.23;;;19.20;;
20336;SDS011;10326;53.660;10.200;2022-11-15T02:04:16;23.58;;;19.98;;
20336;SDS011;10326;53.660;10.200;2022-11-15T02:07:06;21.55;;;18.02;;
20336;SDS011;10326;53.660;10.200;2022-11-15T02:09:56;22.23;;;18.52;;
20336;SDS011;10326;53.660;10.200;2022-11-15T02:12:47;20.42;;;17.90;;
20336;SDS011;10326;53.660;10.200;2022-11-15T02:15:35;20.45;;;17.67;;
20336;SDS011;10326;53.660;10.200;2022-11-15T02:18:32;23.27;;;19.73;;
20336;SDS011;10326;53.660;10.200;2022-11-15T02:21:24;21.05;;;17.38;;
20336;SDS011;10326;53.660;10.200;2022-11-15T02:24:37;22.40;;;18.98;;
20336;SDS011;10326;53.660;10.200;2022-11-15T02:27:51;22.58;;;19.33;;
20336;SDS011;10326;53.660;10.200;2022-11-15T02:31:03;23.70;;;18.83;;
20336;SDS011;10326;53.660;10.200;2022-11-15T02:33:58;20.92;;;17.75;;
20336;SDS011;10326;53.660;10.200;2022-11-15T02:36:54;21.23;;;17.95;;
20336;SDS011;10326;53.660;10.200;2022-11-15T02:39:49;21.42;;;18.75;;
20336;SDS011;10326;53.660;10.200;2022-11-15T02:42:41;23.20;;;18.75;;
20336;SDS011;10326;53.660;10.200;2022-11-15T02:45:51;23.70;;;19.25;;
20336;SDS011;10326;53.660;10.200;2022-11-15T02:48:53;21.30;;;18.67;;
20336;SDS011;10326;53.660;10.200;2022-11-15T02:51:38;20.42;;;18.10;;
20336;SDS011;10326;53.660;10.200;2022-11-15T02:54:26;21.77;;;18.23;;
20336;SDS011;10326;53.660;10.200;2022-11-15T02:57:16;21.05;;;18.23;;
20336;SDS011;10326;53.660;10.200;2022-11-15T03:00:08;20.88;;;18.02;;
20336;SDS011;10326;53.660;10.200;2022-11-15T03:03:04;22.25;;;18.90;;
20336;SDS011;10326;53.660;10.200;2022-11-15T03:06:11;20.42;;;18.13;;
20336;SDS011;10326;53.660;10.200;2022-11-15T03:09:10;20.48;;;17.60;;
20336;SDS011;10326;53.660;10.200;2022-11-15T03:12:07;21.67;;;17.95;;
20336;SDS011;10326;53.660;10.200;2022-11-15T03:14:58;20.60;;;17.85;;
20336;SDS011;10326;53.660;10.200;2022-11-15T03:17:51;21.38;;;18.10;;
20336;SDS011;10326;53.660;10.200;2022-11-15T03:20:42;22.40;;;18.98;;
20336;SDS011;10326;53.660;10.200;2022-11-15T03:23:29;21.38;;;17.40;;
20336;SDS011;10326;53.660;10.200;2022-11-15T03:26:16;23.15;;;18.15;;
20336;SDS011;10326;53.660;10.200;2022-11-15T03:29:07;20.42;;;17.27;;
20336;SDS011;10326;53.660;10.200;2022-11-15T03:31:59;20.45;;;17.92;;
20336;SDS011;10326;53.660;10.200;2022-11-15T03:34:49;19.95;;;17.85;;
20336;SDS011;10326;53.660;10.200;2022-11-15T03:37:41;19.13;;;17.00;;
20336;SDS011;10326;53.660;10.200;2022-11-15T03:40:34;19.65;;;17.55;;
20336;SDS011;10326;53.660;10.200;2022-11-15T03:43:26;21.27;;;18.95;;
20336;SDS011;10326;53.660;10.200;2022-11-15T03:46:21;21.67;;;17.50;;
20336;SDS011;10326;53.660;10.200;2022-11-15T03:49:13;20.00;;;17.73;;
20336;SDS011;10326;53.660;10.200;2022-11-15T03:52:03;21.25;;;18.00;;
20336;SDS011;10326;53.660;10.200;2022-11-15T03:54:52;21.05;;;17.38;;
20336;SDS011;10326;53.660;10.200;2022-11-15T03:57:39;19.20;;;17.02;;
20336;SDS011;10326;53.660;10.200;2022-11-15T04:00:25;19.05;;;16.58;;
20336;SDS011;10326;53.660;10.200;2022-11-15T04:03:11;19.88;;;17.48;;
20336;SDS011;10326;53.660;10.200;2022-11-15T04:05:57;20.67;;;18.15;;
20336;SDS011;10326;53.660;10.200;2022-11-15T04:08:43;19.60;;;17.42;;
20336;SDS011;10326;53.660;10.200;2022-11-15T04:11:29;20.63;;;17.73;;
20336;SDS011;10326;53.660;10.200;2022-11-15T04:14:16;20.83;;;16.98;;
20336;SDS011;10326;53.660;10.200;2022-11-15T04:17:01;19.05;;;17.00;;
20336;SDS011;10326;53.660;10.200;2022-11-15T04:19:46;23.13;;;19.27;;
20336;SDS011;10326;53.660;10.200;2022-11-15T04:22:51;21.10;;;17.73;;
20336;SDS011;10326;53.660;10.200;2022-11-15T04:25:56;20.65;;;18.15;;
20336;SDS011;10326;53.660;10.200;2022-11-15T04:28:47;19.95;;;17.75;;
20336;SDS011;10326;53.660;10.200;2022-11-15T04:31:51;19.55;;;17.13;;
20336;SDS011;10326;53.660;10.200;2022-11-15T04:34:37;19.05;;;17.02;;
20336;SDS011;10326;53.660;10.200;2022-11-15T04:37:23;19.45;;;17.25;;
20336;SDS011;10326;53.660;10.200;2022-11-15T04:40:09;19.85;;;17.30;;
20336;SDS011;10326;53.660;10.200;2022-11-15T04:42:55;21.38;;;18.25;;
20336;SDS011;10326;53.660;10.200;2022-11-15T04:45:43;21.40;;;18.08;;
20336;SDS011;10326;53.660;10.200;2022-11-15T04:48:29;19.60;;;16.98;;
20336;SDS011;10326;53.660;10.200;2022-11-15T04:51:14;20.77;;;17.95;;
20336;SDS011;10326;53.660;10.200;2022-11-15T04:54:01;20.63;;;18.23;;
20336;SDS011;10326;53.660;10.200;2022-11-15T04:56:46;19.67;;;17.23;;
20336;SDS011;10326;53.660;10.200;2022-11-15T04:59:32;19.75;;;17.02;;
20336;SDS011;10326;53.660;10.200;2022-11-15T05:02:19;19.35;;;16.67;;
20336;SDS011;10326;53.660;10.200;2022-11-15T05:05:05;20.25;;;16.75;;
20336;SDS011;10326;53.660;10.200;2022-11-15T05:07:51;18.58;;;16.50;;
20336;SDS011;10326;53.660;10.200;2022-11-15T05:10:36;19.02;;;16.95;;
20336;SDS011;10326;53.660;10.200;2022-11-15T05:13:22;19.45;;;16.92;;
20336;SDS011;10326;53.660;10.200;2022-11-15T05:16:08;19.42;;;17.17;;
20336;SDS011;10326;53.660;10.200;2022-11-15T05:18:55;19.88;;;17.75;;
20336;SDS011;10326;53.660;10.200;2022-11-15T05:21:41;19.45;;;16.98;;
20336;SDS011;10326;53.660;10.200;2022-11-15T05:24:27;19.60;;;17.33;;
20336;SDS011;10326;53.660;10.200;2022-11-15T05:27:12;19.88;;;17.77;;
20336;SDS011;10326;53.660;10.200;2022-11-15T05:29:59;20.75;;;18.20;;
20336;SDS011;10326;53.660;10.200;2022-11-15T05:32:45;20.35;;;17.67;;
20336;SDS011;10326;53.660;10.200;2022-11-15T05:35:33;20.70;;;16.25;;
20336;SDS011;10326;53.660;10.200;2022-11-15T05:38:24;20.13;;;16.92;;
20336;SDS011;10326;53.660;10.200;2022-11-15T05:41:10;19.15;;;16.95;;
20336;SDS011;10326;53.660;10.200;2022-11-15T05:43:57;19.42;;;17.33;;
20336;SDS011;10326;53.660;10.200;2022-11-15T05:46:44;19.88;;;17.70;;
20336;SDS011;10326;53.660;10.200;2022-11-15T05:49:31;21.15;;;17.30;;
20336;SDS011;10326;53.660;10.200;2022-11-15T05:52:24;19.52;;;17.52;;
20336;SDS011;10326;53.660;10.200;2022-11-15T05:55:14;20.17;;;17.48;;
20336;SDS011;10326;53.660;10.200;2022-11-15T05:58:00;19.02;;;17.02;;
20336;SDS011;10326;53.660;10.200;2022-11-15T06:00:46;20.33;;;17.60;;
20336;SDS011;10326;53.660;10.200;2022-11-15T06:03:32;19.70;;;16.88;;
20336;SDS011;10326;53.660;10.200;2022-11-15T06:06:18;21.15;;;17.52;;
20336;SDS011;10326;53.660;10.200;2022-11-15T06:09:06;21.80;;;17.65;;
20336;SDS011;10326;53.660;10.200;2022-11-15T06:11:53;21.55;;;18.40;;
20336;SDS011;10326;53.660;10.200;2022-11-15T06:14:39;21.42;;;18.05;;
20336;SDS011;10326;53.660;10.200;2022-11-15T06:17:25;20.33;;;18.08;;
20336;SDS011;10326;53.660;10.200;2022-11-15T06:20:10;19.30;;;17.27;;
20336;SDS011;10326;53.660;10.200;2022-11-15T06:22:57;20.10;;;17.83;;
20336;SDS011;10326;53.660;10.200;2022-11-15T06:25:45;21.60;;;18.30;;
20336;SDS011;10326;53.660;10.200;2022-11-15T06:28:31;19.85;;;17.17;;
20336;SDS011;10326;53.660;10.200;2022-11-15T06:31:17;19.58;;;17.48;;
20336;SDS011;10326;53.660;10.200;2022-11-15T06:34:03;19.98;;;17.60;;
20336;SDS011;10326;53.660;10.200;2022-11-15T06:36:48;17.92;;;16.00;;
20336;SDS011;10326;53.660;10.200;2022-11-15T06:39:34;22.45;;;17.83;;
20336;SDS011;10326;53.660;10.200;2022-11-15T06:42:21;19.42;;;17.33;;
20336;SDS011;10326;53.660;10.200;2022-11-15T06:45:07;20.75;;;17.15;;
20336;SDS011;10326;53.660;10.200;2022-11-15T06:47:53;19.88;;;17.70;;
20336;SDS011;10326;53.660;10.200;2022-11-15T06:50:39;19.75;;;17.65;;
20336;SDS011;10326;53.660;10.200;2022-11-15T06:53:26;20.02;;;17.13;;
20336;SDS011;10326;53.660;10.200;2022-11-15T06:56:12;21.05;;;17.48;;
20336;SDS011;10326;53.660;10.200;2022-11-15T06:58:59;19.38;;;17.20;;
20336;SDS011;10326;53.660;10.200;2022-11-15T07:01:45;20.83;;;17.55;;
20336;SDS011;10326;53.660;10.200;2022-11-15T07:04:30;19.23;;;16.77;;
20336;SDS011;10326;53.660;10.200;2022-11-15T07:07:16;19.05;;;17.02;;
20336;SDS011;10326;53.660;10.200;2022-11-15T07:10:02;19.55;;;17.25;;
20336;SDS011;10326;53.660;10.200;2022-11-15T07:12:48;19.73;;;16.90;;
20336;SDS011;10326;53.660;10.200;2022-11-15T07:15:35;20.55;;;17.65;;
20336;SDS011;10326;53.660;10.200;2022-11-15T07:18:21;19.05;;;17.02;;
20336;SDS011;10326;53.660;10.200;2022-11-15T07:21:08;20.85;;;18.60;;
20336;SDS011;10326;53.660;10.200;2022-11-15T07:23:56;20.15;;;16.95;;
20336;SDS011;10326;53.660;10.200;2022-11-15T07:26:41;20.02;;;17.35;;
20336;SDS011;10326;53.660;10.200;2022-11-15T07:29:27;18.85;;;16.85;;
20336;SDS011;10326;53.660;10.200;2022-11-15T07:32:14;19.65;;;17.55;;
20336;SDS011;10326;53.660;10.200;2022-11-15T07:35:00;19.70;;;17.55;;
20336;SDS011;10326;53.660;10.200;2022-11-15T07:37:52;18.88;;;16.83;;
20336;SDS011;10326;53.660;10.200;2022-11-15T07:40:39;20.00;;;17.85;;
20336;SDS011;10326;53.660;10.200;2022-11-15T07:43:26;18.48;;;16.42;;
20336;SDS011;10326;53.660;10.200;2022-11-15T07:46:13;18.92;;;16.55;;
20336;SDS011;10326;53.660;10.200;2022-11-15T07:49:00;19.17;;;16.45;;
20336;SDS011;10326;53.660;10.200;2022-11-15T07:51:45;18.55;;;16.55;;
20336;SDS011;10326;53.660;10.200;2022-11-15T07:54:30;19.38;;;17.27;;
20336;SDS011;10326;53.660;10.200;2022-11-15T07:57:16;19.27;;;16.73;;
20336;SDS011;10326;53.660;10.200;2022-11-15T08:00:02;17.48;;;15.77;;
20336;SDS011;10326;53.660;10.200;2022-11-15T08:02:48;19.75;;;17.35;;
20336;SDS011;10326;53.660;10.200;2022-11-15T08:05:36;17.42;;;15.60;;
20336;SDS011;10326;53.660;10.200;2022-11-15T08:08:22;17.10;;;15.30;;
20336;SDS011;10326;53.660;10.200;2022-11-15T08:11:08;18.45;;;15.82;;
20336;SDS011;10326;53.660;10.200;2022-11-15T08:13:53;17.88;;;15.77;;
20336;SDS011;10326;53.660;10.200;2022-11-15T08:16:39;18.65;;;16.02;;
20336;SDS011;10326;53.660;10.200;2022-11-15T08:19:25;17.17;;;15.38;;
20336;SDS011;10326;53.660;10.200;2022-11-15T08:22:12;17.95;;;16.05;;
20336;SDS011;10326;53.660;10.200;2022-11-15T08:24:58;17.33;;;15.00;;
20336;SDS011;10326;53.660;10.200;2022-11-15T08:27:44;17.50;;;15.68;;
20336;SDS011;10326;53.660;10.200;2022-11-15T08:30:30;16.80;;;15.00;;
20336;SDS011;10326;53.660;10.200;2022-11-15T08:33:20;17.45;;;15.60;;
20336;SDS011;10326;53.660;10.200;2022-11-15T08:36:06;17.20;;;15.40;;
20336;SDS011;10326;53.660;10.200;2022-11-15T08:38:59;17.02;;;15.25;;
20336;SDS011;10326;53.660;10.200;2022-11-15T08:41:45;18.15;;;15.98;;
20336;SDS011;10326;53.660;10.200;2022-11-15T08:44:31;18.80;;;16.65;;
20336;SDS011;10326;53.660;10.200;2022-11-15T08:47:17;18.27;;;15.93;;
20336;SDS011;10326;53.660;10.200;2022-11-15T08:50:03;24.30;;;20.08;;
20336;SDS011;10326;53.660;10.200;2022-11-15T08:52:49;21.38;;;19.15;;
20336;SDS011;10326;53.660;10.200;2022-11-15T08:55:37;21.23;;;17.60;;
20336;SDS011;10326;53.660;10.200;2022-11-15T08:58:25;18.70;;;16.60;;
20336;SDS011;10326;53.660;10.200;2022-11-15T09:01:15;20.10;;;17.98;;
20336;SDS011;10326;53.660;10.200;2022-11-15T09:04:03;19.63;;;17.55;;
20336;SDS011;10326;53.660;10.200;2022-11-15T09:06:50;17.95;;;16.00;;
20336;SDS011;10326;53.660;10.200;2022-11-15T09:09:35;21.17;;;15.35;;
20336;SDS011;10326;53.660;10.200;2022-11-15T09:12:23;16.70;;;14.90;;
20336;SDS011;10326;53.660;10.200;2022-11-15T09:15:09;16.73;;;14.95;;
20336;SDS011;10326;53.660;10.200;2022-11-15T09:17:57;16.00;;;14.35;;
20336;SDS011;10326;53.660;10.200;2022-11-15T09:20:43;16.52;;;14.77;;
20336;SDS011;10326;53.660;10.200;2022-11-15T09:23:29;18.50;;;15.25;;
20336;SDS011;10326;53.660;10.200;2022-11-15T09:26:15;16.35;;;14.75;;
20336;SDS011;10326;53.660;10.200;2022-11-15T09:29:02;16.80;;;14.85;;
20336;SDS011;10326;53.660;10.200;2022-11-15T09:31:48;15.60;;;14.00;;
20336;SDS011;10326;53.660;10.200;2022-11-15T09:34:36;15.55;;;13.93;;
20336;SDS011;10326;53.660;10.200;2022-11-15T09:37:22;16.05;;;14.43;;
20336;SDS011;10326;53.660;10.200;2022-11-15T09:40:08;15.98;;;14.27;;
20336;SDS011;10326;53.660;10.200;2022-11-15T09:43:05;18.33;;;14.70;;
20336;SDS011;10326;53.660;10.200;2022-11-15T09:46:12;15.73;;;14.02;;
20336;SDS011;10326;53.660;10.200;2022-11-15T09:49:09;15.10;;;13.50;;
20336;SDS011;10326;53.660;10.200;2022-11-15T09:51:59;15.15;;;13.65;;
20336;SDS011;10326;53.660;10.200;2022-11-15T09:54:28;15.00;;;13.45;;
20336;SDS011;10326;53.660;10.200;2022-11-15T09:57:02;15.00;;;13.38;;
20336;SDS011;10326;53.660;10.200;2022-11-15T09:59:43;15.20;;;13.70;;
20336;SDS011;10326;53.660;10.200;2022-11-15T10:02:31;15.80;;;14.07;;
20336;SDS011;10326;53.660;10.200;2022-11-15T10:05:12;14.95;;;13.45;;
20336;SDS011;10326;53.660;10.200;2022-11-15T10:07:45;17.63;;;14.27;;
20336;SDS011;10326;53.660;10.200;2022-11-15T10:10:20;14.85;;;13.35;;
20336;SDS011;10326;53.660;10.200;2022-11-15T10:12:55;15.63;;;14.00;;
20336;SDS011;10326;53.660;10.200;2022-11-15T10:15:22;15.15;;;13.55;;
20336;SDS011;10326;53.660;10.200;2022-11-15T10:20:44;14.05;;;12.50;;
20336;SDS011;10326;53.660;10.200;2022-11-15T10:23:15;15.15;;;13.55;;
20336;SDS011;10326;53.660;10.200;2022-11-15T10:25:45;15.27;;;13.73;;
20336;SDS011;10326;53.660;10.200;2022-11-15T10:28:16;15.07;;;13.52;;
20336;SDS011;10326;53.660;10.200;2022-11-15T10:30:49;15.30;;;13.48;;
20336;SDS011;10326;53.660;10.200;2022-11-15T10:33:32;15.43;;;13.82;;
20336;SDS011;10326;53.660;10.200;2022-11-15T10:36:14;15.60;;;14.00;;
20336;SDS011;10326;53.660;10.200;2022-11-15T10:38:54;13.88;;;12.48;;
20336;SDS011;10326;53.660;10.200;2022-11-15T10:41:37;14.40;;;12.95;;
20336;SDS011;10326;53.660;10.200;2022-11-15T10:44:18;14.02;;;12.63;;
20336;SDS011;10326;53.660;10.200;2022-11-15T10:49:58;14.77;;;13.27;;
20336;SDS011;10326;53.660;10.200;2022-11-15T10:52:29;14.13;;;12.70;;
20336;SDS011;10326;53.660;10.200;2022-11-15T10:54:59;15.30;;;12.95;;
20336;SDS011;10326;53.660;10.200;2022-11-15T10:57:48;14.27;;;12.77;;
20336;SDS011;10326;53.660;10.200;2022-11-15T11:03:05;14.20;;;12.75;;
20336;SDS011;10326;53.660;10.200;2022-11-15T11:06:02;13.85;;;12.40;;
20336;SDS011;10326;53.660;10.200;2022-11-15T11:08:32;13.15;;;11.77;;
20336;SDS011;10326;53.660;10.200;2022-11-15T11:10:59;13.52;;;12.13;;
20336;SDS011;10326;53.660;10.200;2022-11-15T11:13:28;13.10;;;11.90;;
20336;SDS011;10326;53.660;10.200;2022-11-15T11:15:59;13.63;;;12.23;;
20336;SDS011;10326;53.660;10.200;2022-11-15T11:18:55;14.30;;;12.80;;
20336;SDS011;10326;53.660;10.200;2022-11-15T11:21:34;13.05;;;11.77;;
20336;SDS011;10326;53.660;10.200;2022-11-15T11:24:12;13.98;;;12.57;;
20336;SDS011;10326;53.660;10.200;2022-11-15T11:26:54;12.45;;;11.20;;
20336;SDS011;10326;53.660;10.200;2022-11-15T11:29:38;13.82;;;12.35;;
20336;SDS011;10326;53.660;10.200;2022-11-15T11:32:29;13.15;;;11.80;;
20336;SDS011;10326;53.660;10.200;2022-11-15T11:35:09;13.98;;;12.32;;
20336;SDS011;10326;53.660;10.200;2022-11-15T11:37:44;14.13;;;12.68;;
20336;SDS011;10326;53.660;10.200;2022-11-15T11:40:37;13.50;;;12.20;;
20336;SDS011;10326;53.660;10.200;2022-11-15T11:43:12;12.75;;;11.48;;
20336;SDS011;10326;53.660;10.200;2022-11-15T11:45:55;13.30;;;11.98;;
20336;SDS011;10326;53.660;10.200;2022-11-15T11:48:40;13.02;;;11.73;;
20336;SDS011;10326;53.660;10.200;2022-11-15T11:51:12;13.45;;;12.15;;
20336;SDS011;10326;53.660;10.200;2022-11-15T11:53:48;13.98;;;12.60;;
20336;SDS011;10326;53.660;10.200;2022-11-15T11:56:26;13.25;;;11.50;;
20336;SDS011;10326;53.660;10.200;2022-11-15T11:58:56;12.60;;;11.40;;
20336;SDS011;10326;53.660;10.200;2022-11-15T12:01:34;12.05;;;10.95;;
20336;SDS011;10326;53.660;10.200;2022-11-15T12:04:09;12.73;;;11.43;;
20336;SDS011;10326;53.660;10.200;2022-11-15T12:06:41;12.30;;;11.02;;
20336;SDS011;10326;53.660;10.200;2022-11-15T12:09:17;13.02;;;11.73;;
20336;SDS011;10326;53.660;10.200;2022-11-15T12:11:51;11.50;;;10.35;;
20336;SDS011;10326;53.660;10.200;2022-11-15T12:14:25;13.00;;;11.70;;
20336;SDS011;10326;53.660;10.200;2022-11-15T12:16:59;14.70;;;11.68;;
20336;SDS011;10326;53.660;10.200;2022-11-15T12:19:26;12.38;;;10.95;;
20336;SDS011;10326;53.660;10.200;2022-11-15T12:21:56;12.55;;;11.35;;
20336;SDS011;10326;53.660;10.200;2022-11-15T12:24:32;14.05;;;11.13;;
20336;SDS011;10326;53.660;10.200;2022-11-15T12:27:08;12.35;;;11.15;;
20336;SDS011;10326;53.660;10.200;2022-11-15T12:29:45;12.68;;;11.40;;
20336;SDS011;10326;53.660;10.200;2022-11-15T12:32:23;12.38;;;11.13;;
20336;SDS011;10326;53.660;10.200;2022-11-15T12:34:54;12.40;;;11.10;;
20336;SDS011;10326;53.660;10.200;2022-11-15T12:40:20;12.27;;;11.05;;
20336;SDS011;10326;53.660;10.200;2022-11-15T12:46:02;11.05;;;9.93;;
20336;SDS011;10326;53.660;10.200;2022-11-15T13:03:24;11.75;;;10.55;;
20336;SDS011;10326;53.660;10.200;2022-11-15T13:06:07;11.60;;;10.40;;
20336;SDS011;10326;53.660;10.200;2022-11-15T13:15:31;10.70;;;9.57;;
20336;SDS011;10326;53.660;10.200;2022-11-15T13:18:29;12.57;;;10.35;;
20336;SDS011;10326;53.660;10.200;2022-11-15T13:21:18;11.65;;;10.45;;
20336;SDS011;10326;53.660;10.200;2022-11-15T13:24:10;11.02;;;9.93;;
20336;SDS011;10326;53.660;10.200;2022-11-15T13:26:40;10.85;;;9.80;;
20336;SDS011;10326;53.660;10.200;2022-11-15T13:29:18;10.32;;;9.32;;
20336;SDS011;10326;53.660;10.200;2022-11-15T13:31:46;11.02;;;9.93;;
20336;SDS011;10326;53.660;10.200;2022-11-15T13:34:22;10.60;;;9.35;;
20336;SDS011;10326;53.660;10.200;2022-11-15T13:36:54;10.30;;;9.40;;
20336;SDS011;10326;53.660;10.200;2022-11-15T13:39:26;11.50;;;10.32;;
20336;SDS011;10326;53.660;10.200;2022-11-15T13:41:56;11.70;;;10.25;;
20336;SDS011;10326;53.660;10.200;2022-11-15T13:44:25;12.77;;;9.68;;
20336;SDS011;10326;53.660;10.200;2022-11-15T13:47:01;11.10;;;9.32;;
20336;SDS011;10326;53.660;10.200;2022-11-15T13:49:30;10.73;;;9.55;;
20336;SDS011;10326;53.660;10.200;2022-11-15T13:51:59;10.35;;;9.25;;
20336;SDS011;10326;53.660;10.200;2022-11-15T13:54:30;11.13;;;9.77;;
20336;SDS011;10326;53.660;10.200;2022-11-15T13:57:11;9.85;;;8.85;;
20336;SDS011;10326;53.660;10.200;2022-11-15T13:59:45;10.20;;;9.20;;
20336;SDS011;10326;53.660;10.200;2022-11-15T14:02:18;10.40;;;9.30;;
20336;SDS011;10326;53.660;10.200;2022-11-15T14:04:49;10.73;;;9.38;;
20336;SDS011;10326;53.660;10.200;2022-11-15T14:07:19;9.90;;;9.00;;
20336;SDS011;10326;53.660;10.200;2022-11-15T14:09:48;9.63;;;8.60;;
20336;SDS011;10326;53.660;10.200;2022-11-15T14:12:29;9.90;;;9.00;;
20336;SDS011;10326;53.660;10.200;2022-11-15T14:15:02;8.93;;;8.02;;
20336;SDS011;10326;53.660;10.200;2022-11-15T14:17:52;9.43;;;8.52;;
20336;SDS011;10326;53.660;10.200;2022-11-15T14:20:29;9.63;;;8.73;;
20336;SDS011;10326;53.660;10.200;2022-11-15T14:22:59;10.30;;;9.20;;
20336;SDS011;10326;53.660;10.200;2022-11-15T14:25:29;10.30;;;9.18;;
20336;SDS011;10326;53.660;10.200;2022-11-15T14:28:27;9.30;;;8.40;;
20336;SDS011;10326;53.660;10.200;2022-11-15T14:30:59;9.43;;;8.52;;
20336;SDS011;10326;53.660;10.200;2022-11-15T14:33:28;9.45;;;8.45;;
20336;SDS011;10326;53.660;10.200;2022-11-15T14:35:57;8.90;;;8.00;;
20336;SDS011;10326;53.660;10.200;2022-11-15T14:38:29;8.95;;;8.13;;
20336;SDS011;10326;53.660;10.200;2022-11-15T14:40:56;9.93;;;8.55;;
20336;SDS011;10326;53.660;10.200;2022-11-15T14:43:24;9.63;;;8.73;;
20336;SDS011;10326;53.660;10.200;2022-11-15T14:45:51;9.05;;;8.15;;
20336;SDS011;10326;53.660;10.200;2022-11-15T14:48:20;9.32;;;8.43;;
20336;SDS011;10326;53.660;10.200;2022-11-15T14:50:47;9.50;;;8.43;;
20336;SDS011;10326;53.660;10.200;2022-11-15T14:53:15;9.77;;;8.77;;
20336;SDS011;10326;53.660;10.200;2022-11-15T14:55:45;9.38;;;8.48;;
20336;SDS011;10326;53.660;10.200;2022-11-15T14:58:12;10.30;;;9.32;;
20336;SDS011;10326;53.660;10.200;2022-11-15T15:00:40;9.68;;;8.68;;
20336;SDS011;10326;53.660;10.200;2022-11-15T15:03:08;10.23;;;8.85;;
20336;SDS011;10326;53.660;10.200;2022-11-15T15:05:38;9.57;;;8.57;;
20336;SDS011;10326;53.660;10.200;2022-11-15T15:08:06;9.77;;;8.52;;
20336;SDS011;10326;53.660;10.200;2022-11-15T15:10:36;9.18;;;8.18;;
20336;SDS011;10326;53.660;10.200;2022-11-15T15:13:06;9.45;;;8.40;;
20336;SDS011;10326;53.660;10.200;2022-11-15T15:15:43;9.55;;;8.65;;
20336;SDS011;10326;53.660;10.200;2022-11-15T15:18:11;10.38;;;8.27;;
20336;SDS011;10326;53.660;10.200;2022-11-15T15:20:40;8.90;;;8.00;;
20336;SDS011;10326;53.660;10.200;2022-11-15T15:23:14;9.20;;;8.27;;
20336;SDS011;10326;53.660;10.200;2022-11-15T15:25:43;9.70;;;8.40;;
20336;SDS011;10326;53.660;10.200;2022-11-15T15:28:11;8.63;;;7.78;;
20336;SDS011;10326;53.660;10.200;2022-11-15T15:30:38;8.73;;;7.82;;
20336;SDS011;10326;53.660;10.200;2022-11-15T15:33:05;8.65;;;7.85;;
20336;SDS011;10326;53.660;10.200;2022-11-15T15:35:33;9.35;;;8.45;;
20336;SDS011;10326;53.660;10.200;2022-11-15T15:38:03;8.98;;;8.18;;
20336;SDS011;10326;53.660;10.200;2022-11-15T15:40:31;8.55;;;7.75;;
20336;SDS011;10326;53.660;10.200;2022-11-15T15:42:59;9.00;;;8.20;;
20336;SDS011;10326;53.660;10.200;2022-11-15T15:45:27;9.18;;;8.25;;
20336;SDS011;10326;53.660;10.200;2022-11-15T15:47:54;9.27;;;8.40;;
20336;SDS011;10326;53.660;10.200;2022-11-15T15:50:22;9.15;;;8.23;;
20336;SDS011;10326;53.660;10.200;2022-11-15T15:52:51;9.05;;;8.15;;
20336;SDS011;10326;53.660;10.200;2022-11-15T15:55:21;8.98;;;8.15;;
20336;SDS011;10326;53.660;10.200;2022-11-15T15:57:49;9.27;;;8.38;;
20336;SDS011;10326;53.660;10.200;2022-11-15T16:00:17;9.63;;;8.68;;
20336;SDS011;10326;53.660;10.200;2022-11-15T16:02:48;9.20;;;8.27;;
20336;SDS011;10326;53.660;10.200;2022-11-15T16:05:16;9.35;;;8.45;;
20336;SDS011;10326;53.660;10.200;2022-11-15T16:07:44;9.45;;;8.50;;
20336;SDS011;10326;53.660;10.200;2022-11-15T16:10:17;9.80;;;8.70;;
20336;SDS011;10326;53.660;10.200;2022-11-15T16:12:51;10.20;;;8.80;;
20336;SDS011;10326;53.660;10.200;2022-11-15T16:15:19;9.25;;;8.23;;
20336;SDS011;10326;53.660;10.200;2022-11-15T16:17:49;9.82;;;8.32;;
20336;SDS011;10326;53.660;10.200;2022-11-15T16:23:03;9.35;;;8.52;;